Time;durP1;ratioP1;P1;durP2;ratioP2;P2;SDS_P1;SDS_P2;PMS_P1;PMS_P2;Temp;Humidity;BMP_temperature;BMP_pressure;BME280_temperature;BME280_humidity;BME280_pressure;Samples;Min_cycle;Max_cycle;Signal;HPM_P1;HPM_P2
2023/01/31 00:01:36;;;;;;;15.02;3.70;;;;;;;3.09;100.00;97786.31;4371606;32;20420;-70
2023/01/31 00:04:06;;;;;;;6.10;2.97;;;;;;;3.19;100.00;97783.91;4384013;32;20068;-71
2023/01/31 00:06:37;;;;;;;5.32;3.28;;;;;;;3.17;100.00;97795.81;4383412;32;20408;-71
2023/01/31 00:09:05;;;;;;;11.90;3.40;;;;;;;2.77;100.00;97754.75;4384009;32;20212;-70
2023/01/31 00:11:32;;;;;;;15.20;3.90;;;;;;;2.95;100.00;97782.28;4383001;32;20445;-70
2023/01/31 00:14:00;;;;;;;10.10;3.55;;;;;;;2.72;100.00;97755.44;4386308;32;20080;-71
2023/01/31 00:16:34;;;;;;;13.07;3.90;;;;;;;2.78;100.00;97790.16;4352470;32;20081;-71
2023/01/31 00:19:02;;;;;;;10.77;3.92;;;;;;;3.14;100.00;97798.94;4353463;32;20061;-71
2023/01/31 00:21:30;;;;;;;8.45;3.05;;;;;;;3.14;100.00;97805.06;4344613;32;20073;-71
2023/01/31 00:23:57;;;;;;;6.97;4.22;;;;;;;2.93;100.00;97814.41;4353965;32;20052;-72
2023/01/31 00:26:28;;;;;;;18.48;4.20;;;;;;;2.86;100.00;97809.22;4353574;32;20054;-72
2023/01/31 00:28:56;;;;;;;11.95;3.87;;;;;;;3.31;100.00;97809.69;4353941;32;20454;-71
2023/01/31 00:31:25;;;;;;;13.15;3.53;;;;;;;2.73;100.00;97772.22;4353139;32;20073;-70
2023/01/31 00:33:53;;;;;;;21.08;3.80;;;;;;;2.74;100.00;97779.12;4352291;32;20073;-70
2023/01/31 00:36:22;;;;;;;7.47;3.20;;;;;;;3.00;100.00;97804.50;4307978;33;20555;-71
2023/01/31 00:41:27;;;;;;;9.43;3.40;;;;;;;2.70;100.00;97793.94;4307645;33;20386;-71
2023/01/31 00:43:54;;;;;;;4.80;2.70;;;;;;;3.09;100.00;97823.56;4295612;33;20076;-71
2023/01/31 00:46:22;;;;;;;11.77;3.15;;;;;;;2.51;100.00;97801.97;4294891;33;20427;-71
2023/01/31 00:48:49;;;;;;;12.37;3.15;;;;;;;3.04;100.00;97837.53;4299971;33;20048;-71
2023/01/31 00:51:17;;;;;;;8.30;3.97;;;;;;;2.87;100.00;97842.75;4292170;33;20048;-71
2023/01/31 00:53:43;;;;;;;19.08;3.37;;;;;;;2.68;100.00;97838.53;4283137;33;20037;-71
2023/01/31 00:56:13;;;;;;;7.85;2.75;;;;;;;2.53;100.00;97853.03;4294967;33;20083;-71
2023/01/31 00:58:41;;;;;;;4.53;2.90;;;;;;;2.51;100.00;97855.12;4293737;33;20168;-72
2023/01/31 03:02:15;;;;;;;10.77;2.22;;;;;;;3.11;100.00;97970.41;4373883;27;20161;-71
2023/01/31 03:04:43;;;;;;;15.07;3.15;;;;;;;2.84;100.00;97954.88;4270193;33;20418;-71
2023/01/31 03:07:32;;;;;;;9.70;2.42;;;;;;;3.14;100.00;97979.81;4269713;33;20046;-71
2023/01/31 03:10:15;;;;;;;19.77;3.30;;;;;;;2.99;100.00;97945.66;4268675;33;20064;-71
2023/01/31 03:12:49;;;;;;;13.32;2.08;;;;;;;2.80;100.00;97958.19;4269678;33;20037;-71
2023/01/31 03:15:22;;;;;;;14.07;2.72;;;;;;;3.13;100.00;97994.97;4270095;33;20367;-71
2023/01/31 03:18:11;;;;;;;10.07;2.80;;;;;;;2.90;100.00;97974.41;4269294;33;20410;-71
2023/01/31 03:20:48;;;;;;;20.17;2.60;;;;;;;3.20;100.00;98010.81;4270285;33;20046;-71
2023/01/31 03:23:28;;;;;;;5.07;2.30;;;;;;;2.82;100.00;97975.53;4268655;33;20060;-70
2023/01/31 03:25:57;;;;;;;21.65;2.87;;;;;;;2.91;100.00;97998.13;4269608;33;20034;-71
2023/01/31 03:28:29;;;;;;;26.77;3.62;;;;;;;2.75;100.00;97989.97;4270044;33;20064;-70
2023/01/31 03:31:27;;;;;;;15.73;2.40;;;;;;;2.88;100.00;98017.16;4268459;33;20046;-71
2023/01/31 03:33:59;;;;;;;15.90;2.22;;;;;;;2.90;100.00;98039.06;4270013;33;20071;-71
2023/01/31 03:36:38;;;;;;;11.70;2.33;;;;;;;2.81;100.00;98051.03;4267503;33;20095;-71
2023/01/31 03:39:26;;;;;;;18.75;2.95;;;;;;;2.81;100.00;98023.59;4269788;33;20086;-71
2023/01/31 03:42:14;;;;;;;10.05;2.60;;;;;;;2.96;100.00;98063.91;4268925;33;20375;-71
2023/01/31 03:44:46;;;;;;;8.07;2.55;;;;;;;2.88;100.00;98025.16;4269359;33;20103;-71
2023/01/31 03:47:23;;;;;;;13.18;2.65;;;;;;;2.86;100.00;98032.56;4269565;33;20067;-71
2023/01/31 03:49:53;;;;;;;9.90;2.65;;;;;;;3.04;100.00;98065.47;4266739;33;20041;-71
2023/01/31 03:52:34;;;;;;;8.55;1.90;;;;;;;2.99;100.00;98068.78;4275351;33;20049;-71
2023/01/31 03:55:11;;;;;;;14.35;2.72;;;;;;;2.86;100.00;98064.47;4253509;33;20093;-69
2023/01/31 03:57:41;;;;;;;8.40;2.33;;;;;;;2.92;100.00;98076.06;4252689;33;20194;-70
2023/01/31 04:00:13;;;;;;;16.67;2.95;;;;;;;2.70;100.00;98057.91;4253251;33;20042;-70
2023/01/31 04:02:42;;;;;;;20.98;2.87;;;;;;;2.77;100.00;98075.63;4251500;33;20042;-69
2023/01/31 04:05:19;;;;;;;18.67;2.55;;;;;;;2.73;100.00;98089.34;4251032;33;20159;-70
2023/01/31 04:07:47;;;;;;;11.93;2.15;;;;;;;2.67;100.00;98089.44;4252997;33;20050;-70
2023/01/31 04:10:18;;;;;;;18.48;3.42;;;;;;;2.62;100.00;98062.72;4253558;33;20041;-70
2023/01/31 04:12:45;;;;;;;18.35;2.55;;;;;;;2.77;100.00;98118.97;4252982;33;20141;-70
2023/01/31 04:15:12;;;;;;;22.67;4.25;;;;;;;2.72;100.00;98101.00;4223131;34;20049;-70
2023/01/31 04:17:39;;;;;;;12.20;2.45;;;;;;;2.57;100.00;98092.59;4224254;34;20982;-71
2023/01/31 04:20:07;;;;;;;14.85;2.72;;;;;;;2.81;100.00;98121.97;4225113;34;20060;-70
2023/01/31 04:22:33;;;;;;;7.18;1.77;;;;;;;2.51;100.00;98088.16;4224492;34;20466;-69
2023/01/31 04:25:00;;;;;;;11.35;2.78;;;;;;;2.49;100.00;98125.59;4226246;33;20366;-70
2023/01/31 04:27:27;;;;;;;6.28;1.92;;;;;;;2.76;100.00;98117.34;4250717;33;20185;-69
2023/01/31 04:29:53;;;;;;;15.75;2.45;;;;;;;2.46;100.00;98118.06;4253210;33;20120;-70
2023/01/31 04:32:20;;;;;;;10.35;2.15;;;;;;;2.65;100.00;98104.75;4252862;33;20191;-70
2023/01/31 04:34:46;;;;;;;15.23;2.55;;;;;;;2.58;100.00;98112.00;4252775;33;20042;-70
2023/01/31 04:37:12;;;;;;;4.55;2.05;;;;;;;2.65;100.00;98131.34;4250318;33;20046;-70
2023/01/31 04:39:39;;;;;;;10.93;2.28;;;;;;;2.42;100.00;98116.06;4252076;33;20198;-71
2023/01/31 04:42:05;;;;;;;10.93;2.05;;;;;;;2.51;100.00;98131.50;4252433;33;20051;-70
2023/01/31 04:44:32;;;;;;;14.90;2.47;;;;;;;2.53;100.00;98129.41;4252791;33;20307;-70
2023/01/31 04:46:58;;;;;;;7.50;1.67;;;;;;;2.26;100.00;98085.56;4273419;33;20495;-70
2023/01/31 04:49:25;;;;;;;12.10;2.42;;;;;;;2.42;100.00;98094.78;4262951;33;20037;-71
2023/01/31 04:51:52;;;;;;;11.02;1.70;;;;;;;2.53;100.00;98140.06;4266231;33;20061;-71
2023/01/31 04:54:19;;;;;;;11.02;1.60;;;;;;;2.76;100.00;98127.97;4266774;33;20063;-71
2023/01/31 04:56:45;;;;;;;12.68;1.35;;;;;;;2.46;100.00;98115.41;4266339;33;20060;-69
2023/01/31 04:59:11;;;;;;;4.75;1.58;;;;;;;2.25;100.00;98105.16;4266578;33;20033;-69
2023/01/31 05:01:40;;;;;;;12.70;2.85;;;;;;;2.23;100.00;98101.91;4263145;33;20050;-69
2023/01/31 05:04:07;;;;;;;10.95;2.12;;;;;;;2.42;100.00;98097.44;4266858;33;20971;-69
2023/01/31 05:06:34;;;;;;;11.63;2.37;;;;;;;2.51;100.00;98147.44;4265585;33;20057;-69
2023/01/31 05:09:00;;;;;;;14.45;2.17;;;;;;;2.60;100.00;98165.75;4255661;33;20071;-69
2023/01/31 05:11:27;;;;;;;5.87;1.75;;;;;;;2.12;100.00;98122.88;4252935;33;20070;-70
2023/01/31 05:13:54;;;;;;;8.15;2.47;;;;;;;2.54;100.00;98172.78;4249202;33;20066;-70
2023/01/31 05:16:21;;;;;;;10.95;1.85;;;;;;;2.52;100.00;98164.19;4240834;33;20093;-69
2023/01/31 05:18:49;;;;;;;15.43;2.62;;;;;;;2.58;100.00;98167.81;4238171;33;20042;-69
2023/01/31 05:21:16;;;;;;;6.55;1.48;;;;;;;2.42;100.00;98177.97;4236453;33;20370;-71
2023/01/31 05:23:42;;;;;;;12.73;2.15;;;;;;;2.40;100.00;98173.91;4236271;33;20455;-70
2023/01/31 05:26:09;;;;;;;7.87;2.15;;;;;;;2.41;100.00;98192.31;4239123;33;20083;-71
2023/01/31 05:28:35;;;;;;;16.42;2.95;;;;;;;2.23;100.00;98176.28;4258005;33;20178;-70
2023/01/31 05:31:06;;;;;;;15.88;3.17;;;;;;;2.60;100.00;98208.28;4266185;33;20083;-70
2023/01/31 05:33:32;;;;;;;4.20;1.77;;;;;;;2.42;100.00;98177.97;4265870;33;20060;-71
2023/01/31 05:35:59;;;;;;;10.85;2.00;;;;;;;2.63;100.00;98181.25;4235058;33;20061;-70
2023/01/31 05:38:26;;;;;;;16.02;2.72;;;;;;;2.48;100.00;98185.06;4224166;34;20078;-70
2023/01/31 05:40:52;;;;;;;13.13;3.15;;;;;;;2.50;100.00;98208.78;4208867;34;20043;-70
2023/01/31 05:43:19;;;;;;;8.70;2.30;;;;;;;2.17;100.00;98205.34;4209989;34;20369;-70
2023/01/31 05:45:48;;;;;;;10.25;2.33;;;;;;;2.45;100.00;98220.03;4208765;34;20035;-70
2023/01/31 05:48:14;;;;;;;24.42;2.80;;;;;;;2.38;100.00;98224.63;4208792;34;20200;-70
2023/01/31 05:50:40;;;;;;;11.38;2.55;;;;;;;2.50;100.00;98230.84;4209676;34;20032;-70
2023/01/31 05:53:08;;;;;;;11.73;5.20;;;;;;;2.53;100.00;98241.03;4208736;34;20039;-69
2023/01/31 05:55:34;;;;;;;11.63;3.58;;;;;;;2.51;100.00;98248.41;4209844;34;20061;-70
2023/01/31 05:58:01;;;;;;;18.08;3.75;;;;;;;2.33;100.00;98253.66;4207200;34;20071;-70
2023/01/31 06:00:28;;;;;;;8.98;1.85;;;;;;;2.02;100.00;98231.38;4195607;34;20055;-70
2023/01/31 06:02:58;;;;;;;8.50;2.42;;;;;;;2.47;100.00;98252.56;4194944;34;20467;-69
2023/01/31 06:05:26;;;;;;;8.45;2.08;;;;;;;2.50;100.00;98273.34;4194838;34;20071;-69
2023/01/31 06:07:52;;;;;;;11.85;2.70;;;;;;;2.15;100.00;98276.47;4151127;34;20373;-69
2023/01/31 06:10:19;;;;;;;11.12;2.47;;;;;;;2.51;100.00;98264.38;4188344;34;20052;-69
2023/01/31 06:12:45;;;;;;;11.60;3.03;;;;;;;1.91;100.00;98243.50;4184611;34;20050;-69
2023/01/31 06:15:12;;;;;;;14.85;2.85;;;;;;;2.42;100.00;98270.16;4215277;34;20132;-69
2023/01/31 06:17:38;;;;;;;14.10;2.30;;;;;;;2.28;100.00;98290.69;4220969;33;20051;-69
2023/01/31 06:20:05;;;;;;;13.90;3.12;;;;;;;2.23;100.00;98255.97;4221493;34;20062;-69
2023/01/31 06:22:31;;;;;;;16.58;2.50;;;;;;;2.21;100.00;98287.25;4215697;34;20094;-69
2023/01/31 06:25:05;;;;;;;9.98;2.17;;;;;;;2.43;100.00;98299.19;4211002;34;20047;-69
2023/01/31 06:27:32;;;;;;;14.35;3.35;;;;;;;2.16;100.00;98304.66;4210619;34;20157;-69
2023/01/31 06:29:59;;;;;;;13.62;3.15;;;;;;;2.30;100.00;98262.09;4219988;34;20074;-69
2023/01/31 06:32:25;;;;;;;9.90;2.53;;;;;;;2.36;100.00;98293.06;4235992;33;20568;-69
2023/01/31 06:34:52;;;;;;;12.82;3.45;;;;;;;2.08;100.00;98301.44;4245578;33;20059;-69
2023/01/31 06:37:18;;;;;;;12.80;3.28;;;;;;;2.40;100.00;98331.47;4238443;33;20064;-69
2023/01/31 06:39:45;;;;;;;12.10;2.92;;;;;;;2.45;100.00;98336.97;4250210;33;20107;-69
2023/01/31 06:42:11;;;;;;;14.02;2.97;;;;;;;2.25;100.00;98341.56;4250218;33;20103;-70
2023/01/31 06:44:38;;;;;;;11.15;2.90;;;;;;;2.28;100.00;98333.19;4236439;33;20058;-69
2023/01/31 06:47:04;;;;;;;11.88;3.33;;;;;;;2.42;100.00;98340.06;4237445;33;21017;-69
2023/01/31 06:49:31;;;;;;;13.93;3.15;;;;;;;2.21;100.00;98305.84;4239954;33;20100;-70
2023/01/31 06:51:57;;;;;;;12.35;2.75;;;;;;;2.25;100.00;98307.03;4237655;33;20055;-69
2023/01/31 06:54:24;;;;;;;12.68;3.45;;;;;;;2.43;100.00;98340.88;4236974;33;20060;-69
2023/01/31 06:56:50;;;;;;;8.30;2.72;;;;;;;2.51;100.00;98338.78;4234323;33;20080;-70
2023/01/31 06:59:17;;;;;;;11.82;4.03;;;;;;;2.59;100.00;98342.22;4237881;33;20957;-69
2023/01/31 07:01:43;;;;;;;10.27;3.03;;;;;;;2.21;100.00;98340.37;4242904;33;20051;-70
2023/01/31 07:04:12;;;;;;;10.07;2.37;;;;;;;2.21;100.00;98353.66;4234300;33;20046;-68
2023/01/31 07:06:40;;;;;;;10.25;2.80;;;;;;;2.09;100.00;98350.84;4225798;34;20063;-69
2023/01/31 07:09:07;;;;;;;12.43;3.12;;;;;;;2.17;100.00;98343.47;4224206;34;20423;-71
2023/01/31 07:11:33;;;;;;;9.65;3.00;;;;;;;2.09;100.00;98303.88;4225429;34;20980;-74
2023/01/31 07:14:00;;;;;;;10.25;2.72;;;;;;;2.33;100.00;98346.63;4225859;34;20064;-71
2023/01/31 07:16:26;;;;;;;12.55;2.85;;;;;;;2.43;100.00;98344.34;4218279;33;20070;-71
2023/01/31 07:18:53;;;;;;;17.37;3.78;;;;;;;2.37;100.00;98347.84;4239748;33;20043;-71
2023/01/31 07:21:22;;;;;;;13.30;3.35;;;;;;;2.40;100.00;98358.06;4237727;33;20047;-71
2023/01/31 07:23:49;;;;;;;16.90;3.87;;;;;;;2.23;100.00;98372.84;4239608;33;20102;-70
2023/01/31 07:26:16;;;;;;;12.40;3.28;;;;;;;2.34;100.00;98358.91;4223647;34;20064;-70
2023/01/31 07:28:57;;;;;;;14.73;3.22;;;;;;;2.58;100.00;98365.31;4226126;34;20035;-71
2023/01/31 07:31:26;;;;;;;8.77;3.58;;;;;;;2.38;100.00;98378.72;4225562;34;20054;-71
2023/01/31 07:34:01;;;;;;;11.45;3.17;;;;;;;2.49;100.00;98361.25;4225144;34;20079;-71
2023/01/31 07:36:32;;;;;;;11.73;3.90;;;;;;;2.47;100.00;98358.84;4223875;34;20077;-70
2023/01/31 07:39:02;;;;;;;4.70;2.22;;;;;;;2.36;100.00;98362.16;4221906;34;20059;-71
2023/01/31 07:41:31;;;;;;;10.68;2.92;;;;;;;2.23;100.00;98383.47;4225746;34;20508;-71
2023/01/31 07:44:07;;;;;;;11.48;3.20;;;;;;;2.18;100.00;98371.63;4238139;33;20042;-71
2023/01/31 07:46:43;;;;;;;10.63;2.83;;;;;;;2.39;100.00;98396.28;4253161;33;20049;-71
2023/01/31 07:49:15;;;;;;;7.85;2.97;;;;;;;2.46;100.00;98386.44;4254001;33;20050;-71
2023/01/31 07:51:46;;;;;;;9.07;3.28;;;;;;;2.22;100.00;98393.31;4253786;33;20047;-72
2023/01/31 07:54:13;;;;;;;6.60;2.00;;;;;;;2.12;100.00;98356.56;4251149;33;20076;-72
2023/01/31 07:56:40;;;;;;;10.70;2.35;;;;;;;2.05;100.00;98398.25;4265692;33;20025;-71
2023/01/31 07:59:07;;;;;;;16.55;4.43;;;;;;;2.25;100.00;98397.38;4284058;33;20040;-71
2023/01/31 08:04:21;;;;;;;17.08;3.80;;;;;;;1.84;100.00;98353.44;4237932;33;20046;-73
2023/01/31 08:06:54;;;;;;;7.55;3.40;;;;;;;2.15;100.00;98395.16;4236135;33;20042;-71
2023/01/31 08:09:28;;;;;;;14.10;3.12;;;;;;;2.23;100.00;98394.91;4239915;33;20042;-71
2023/01/31 08:11:56;;;;;;;11.90;4.10;;;;;;;1.88;100.00;98371.34;4238632;33;20084;-71
2023/01/31 08:14:30;;;;;;;;;;;;;;;2.14;100.00;98394.34;4238514;33;20055;-71
2023/01/31 08:16:59;;;;;;;4.20;2.17;;;;;;;2.29;100.00;98398.59;4239085;33;19952;-71
2023/01/31 08:19:28;;;;;;;14.98;3.60;;;;;;;1.85;100.00;98413.44;4239167;33;20081;-70
2023/01/31 08:21:54;;;;;;;9.55;3.00;;;;;;;2.22;100.00;98429.66;4252515;33;20060;-71
2023/01/31 08:24:23;;;;;;;14.52;3.67;;;;;;;2.20;100.00;98442.34;4253500;33;20083;-71
2023/01/31 08:26:53;;;;;;;18.85;3.80;;;;;;;2.07;100.00;98437.87;4249842;33;20045;-71
2023/01/31 08:29:25;;;;;;;7.85;3.30;;;;;;;2.33;100.00;98426.34;4243190;33;20056;-71
2023/01/31 08:31:54;;;;;;;10.27;2.47;;;;;;;2.20;100.00;98432.53;4242958;33;20037;-71
2023/01/31 08:34:23;;;;;;;13.07;3.67;;;;;;;2.30;100.00;98422.28;4267458;33;20077;-71
2023/01/31 08:36:53;;;;;;;11.93;3.25;;;;;;;2.35;100.00;98429.63;4265755;33;20041;-71
2023/01/31 08:39:20;;;;;;;11.23;2.83;;;;;;;2.27;100.00;98405.97;4266747;33;20075;-71
2023/01/31 08:41:49;;;;;;;9.13;3.35;;;;;;;2.11;100.00;98405.41;4237019;33;20117;-71
2023/01/31 08:44:19;;;;;;;19.05;4.20;;;;;;;2.38;100.00;98461.09;4237918;33;20080;-71
2023/01/31 08:46:46;;;;;;;8.07;2.90;;;;;;;2.35;100.00;98456.19;4236310;33;20046;-71
2023/01/31 08:49:12;;;;;;;8.73;3.70;;;;;;;-146.33;100.00;62405.19;4243457;33;20054;-72
2023/01/31 08:51:44;;;;;;;8.00;2.75;;;;;;;-146.33;100.00;62405.19;4252038;33;20041;-71
2023/01/31 09:08:00;;;;;;;5.82;3.03;;;;;;;2.20;100.00;98442.34;4252246;33;20037;-73
2023/01/31 09:10:27;;;;;;;7.87;3.20;;;;;;;2.20;100.00;98442.34;4237214;33;20456;-72
2023/01/31 09:12:53;;;;;;;18.23;3.95;;;;;;;2.41;100.00;98455.34;4249975;33;20034;-72
2023/01/31 09:15:20;;;;;;;12.07;3.65;;;;;;;2.34;100.00;98475.81;4265937;33;20038;-70
2023/01/31 09:17:47;;;;;;;12.32;3.28;;;;;;;2.25;100.00;98461.13;4262452;33;20068;-71
2023/01/31 09:20:13;;;;;;;10.45;2.53;;;;;;;2.27;100.00;98459.91;4265872;33;20364;-71
2023/01/31 09:22:39;;;;;;;14.75;2.55;;;;;;;2.32;100.00;98451.28;4264518;33;20516;-71
2023/01/31 09:25:07;;;;;;;8.10;2.70;;;;;;;2.17;100.00;98439.09;4266265;33;20030;-71
2023/01/31 09:27:35;;;;;;;9.60;3.37;;;;;;;2.54;100.00;98471.22;4265500;33;20038;-71
2023/01/31 09:30:03;;;;;;;5.35;2.67;;;;;;;2.12;100.00;98448.69;4264352;33;20068;-72
2023/01/31 09:32:30;;;;;;;8.63;3.00;;;;;;;2.48;100.00;98448.16;4265708;33;20042;-72
2023/01/31 09:34:57;;;;;;;13.15;2.47;;;;;;;2.27;100.00;98453.78;4265891;33;20096;-72
2023/01/31 09:37:24;;;;;;;9.27;2.50;;;;;;;2.29;100.00;98449.06;4265392;33;20041;-72
2023/01/31 09:39:50;;;;;;;23.62;2.50;;;;;;;2.54;100.00;98507.63;4265153;33;20420;-73
2023/01/31 09:42:30;;;;;;;9.07;3.20;;;;;;;2.51;100.00;98482.28;4264846;33;20498;-72
2023/01/31 09:45:16;;;;;;;8.38;2.40;;;;;;;2.50;100.00;98454.06;4266814;33;20368;-71
2023/01/31 09:47:46;;;;;;;7.22;2.65;;;;;;;2.52;100.00;98457.34;4266344;33;20077;-71
2023/01/31 09:50:41;;;;;;;9.93;2.28;;;;;;;2.18;100.00;98496.47;4268349;33;20045;-71
2023/01/31 09:53:12;;;;;;;10.32;3.75;;;;;;;2.66;100.00;98505.13;4249365;33;20076;-71
2023/01/31 09:55:47;;;;;;;7.22;1.98;;;;;;;2.58;100.00;98503.50;4254462;33;20305;-71
2023/01/31 09:58:21;;;;;;;4.90;1.40;;;;;;;2.60;100.00;98505.97;4251824;33;20042;-70
2023/01/31 10:01:02;;;;;;;7.28;2.12;;;;;;;2.62;100.00;98498.63;4251308;33;20064;-71
2023/01/31 10:03:40;;;;;;;5.72;1.80;;;;;;;2.44;100.00;98518.72;4252284;33;20046;-71
2023/01/31 10:06:18;;;;;;;10.52;2.10;;;;;;;2.37;100.00;98464.75;4251238;33;20088;-71
2023/01/31 10:09:03;;;;;;;10.18;2.45;;;;;;;2.56;100.00;98510.88;4249132;33;20038;-71
2023/01/31 10:11:52;;;;;;;9.02;2.90;;;;;;;2.57;100.00;98493.09;4251021;33;20120;-71
2023/01/31 10:14:50;;;;;;;11.77;3.33;;;;;;;2.71;100.00;98521.25;4234747;33;20101;-71
2023/01/31 10:17:21;;;;;;;7.62;2.45;;;;;;;-146.33;100.00;62405.19;4236060;33;20064;-72
2023/01/31 12:03:50;;;;;;;14.48;3.47;;;;;;;2.68;100.00;98513.69;4245323;33;20441;-72
2023/01/31 12:06:32;;;;;;;7.53;2.17;;;;;;;2.68;100.00;98513.69;4293475;33;20055;-70
2023/01/31 12:09:00;;;;;;;8.77;2.67;;;;;;;2.65;100.00;98434.38;4298260;33;20084;-69
2023/01/31 12:11:33;;;;;;;12.35;3.12;;;;;;;2.50;100.00;98434.66;4299876;33;20055;-70
2023/01/31 12:14:01;;;;;;;;;;;;;;;2.47;100.00;98427.09;4302559;33;20028;-70
2023/01/31 12:16:29;;;;;;;14.00;2.53;;;;;;;2.52;100.00;98438.75;4303631;33;19984;-71
2023/01/31 12:19:02;;;;;;;11.65;3.08;;;;;;;2.28;100.00;98415.53;4304126;33;20055;-70
2023/01/31 12:21:50;;;;;;;13.73;3.17;;;;;;;2.76;100.00;98420.41;4286632;33;20026;-71
2023/01/31 12:24:36;;;;;;;12.95;3.05;;;;;;;2.70;100.00;98447.84;4287286;33;20070;-69
2023/01/31 12:27:27;;;;;;;11.02;2.42;;;;;;;2.70;100.00;98447.84;4284671;33;20426;-69
2023/01/31 12:30:15;;;;;;;15.13;3.60;;;;;;;2.98;100.00;98428.03;4285365;33;20089;-71
2023/01/31 12:32:48;;;;;;;12.77;3.20;;;;;;;2.97;100.00;98421.09;4285488;33;20030;-71
2023/01/31 12:35:27;;;;;;;5.65;2.65;;;;;;;2.71;100.00;98388.31;4287078;33;20329;-70
2023/01/31 12:38:23;;;;;;;12.43;2.33;;;;;;;2.48;100.00;98420.78;4288675;33;20084;-70
2023/01/31 12:41:10;;;;;;;10.18;2.65;;;;;;;2.60;100.00;98423.56;4294431;33;20041;-71
2023/01/31 12:43:52;;;;;;;4.68;1.92;;;;;;;2.81;100.00;98422.41;4295442;33;20055;-70
2023/01/31 12:46:47;;;;;;;7.03;2.08;;;;;;;2.78;100.00;98434.31;4295077;33;20119;-71
2023/01/31 12:49:42;;;;;;;10.25;2.65;;;;;;;2.48;100.00;98389.69;4280274;33;20085;-70
2023/01/31 12:52:14;;;;;;;5.20;2.12;;;;;;;2.81;100.00;98425.06;4285233;33;20084;-71
2023/01/31 12:55:07;;;;;;;8.10;2.35;;;;;;;2.27;100.00;98390.03;4283215;33;20041;-71
2023/01/31 12:57:51;;;;;;;8.13;1.95;;;;;;;2.36;100.00;98394.03;4281302;33;20037;-71
2023/01/31 13:00:32;;;;;;;13.85;2.30;;;;;;;2.71;100.00;98412.25;4282755;33;20180;-70
2023/01/31 13:03:08;;;;;;;14.90;3.92;;;;;;;2.64;100.00;98388.38;4262499;33;20391;-70
2023/01/31 13:05:50;;;;;;;5.78;1.80;;;;;;;2.86;100.00;98415.44;4266541;33;20033;-70
2023/01/31 13:08:21;;;;;;;6.50;2.15;;;;;;;2.68;100.00;98413.50;4273233;33;20044;-72
2023/01/31 13:10:56;;;;;;;8.73;2.53;;;;;;;2.64;100.00;98358.31;4286183;33;20798;-69
2023/01/31 13:13:34;;;;;;;6.45;1.98;;;;;;;2.54;100.00;98370.25;4285230;33;20128;-70
2023/01/31 13:16:15;;;;;;;7.35;2.55;;;;;;;2.63;100.00;98364.66;4283527;33;20046;-71
2023/01/31 13:18:45;;;;;;;4.78;1.70;;;;;;;2.84;100.00;98388.25;4285895;33;20030;-70
2023/01/31 13:21:16;;;;;;;8.50;2.25;;;;;;;2.89;100.00;98388.41;4284558;33;20082;-71
2023/01/31 13:23:48;;;;;;;7.75;2.53;;;;;;;2.92;100.00;98397.81;4280025;33;20029;-70
2023/01/31 13:26:26;;;;;;;9.52;2.08;;;;;;;2.98;100.00;98401.44;4276073;33;20054;-70
2023/01/31 13:29:01;;;;;;;10.63;2.17;;;;;;;2.64;100.00;98406.19;4277208;33;20033;-70
2023/01/31 13:32:09;;;;;;;9.88;2.62;;;;;;;2.57;100.00;98394.75;4282481;33;20108;-71
2023/01/31 13:34:47;;;;;;;9.00;2.10;;;;;;;2.96;100.00;98396.34;4296104;33;20091;-71
2023/01/31 13:37:19;;;;;;;9.43;2.60;;;;;;;2.85;100.00;98392.53;4304693;33;20397;-69
2023/01/31 13:39:48;;;;;;;16.33;2.58;;;;;;;2.84;100.00;98400.72;4297766;33;20060;-70
2023/01/31 13:42:16;;;;;;;5.60;1.75;;;;;;;2.99;100.00;98371.16;4310817;33;20075;-70
2023/01/31 13:44:43;;;;;;;8.65;1.98;;;;;;;2.85;100.00;98376.56;4310687;33;20107;-70
2023/01/31 13:47:24;;;;;;;10.15;2.10;;;;;;;2.58;100.00;98343.22;4309940;33;20045;-71
2023/01/31 13:50:29;;;;;;;7.97;1.92;;;;;;;2.81;100.00;98379.88;4311249;33;20190;-70
2023/01/31 13:53:00;;;;;;;11.77;2.87;;;;;;;2.77;100.00;98370.72;4287175;33;20104;-69
2023/01/31 13:55:38;;;;;;;5.73;2.57;;;;;;;2.66;100.00;98335.00;4282244;33;20073;-70
2023/01/31 13:58:12;;;;;;;14.63;2.65;;;;;;;2.78;100.00;98353.75;4279653;33;20059;-69
2023/01/31 14:00:42;;;;;;;12.00;3.17;;;;;;;2.98;100.00;98348.25;4285524;33;20126;-70
2023/01/31 14:03:13;;;;;;;7.95;1.95;;;;;;;2.80;100.00;98325.91;4296372;33;20368;-70
2023/01/31 14:05:48;;;;;;;8.80;2.85;;;;;;;2.76;100.00;98355.78;4297637;33;20071;-70
2023/01/31 14:08:35;;;;;;;8.15;1.95;;;;;;;2.35;100.00;98323.34;4296521;33;20168;-69
2023/01/31 14:11:14;;;;;;;9.02;2.42;;;;;;;2.47;100.00;98326.97;4299502;33;20397;-71
2023/01/31 14:13:43;;;;;;;9.40;2.45;;;;;;;2.64;100.00;98355.66;4301438;33;20041;-70
2023/01/31 14:16:38;;;;;;;14.30;2.53;;;;;;;2.70;100.00;98344.19;4301282;33;20090;-70
2023/01/31 14:19:25;;;;;;;12.50;2.80;;;;;;;2.37;100.00;98305.34;4284107;33;20053;-75
2023/01/31 14:22:02;;;;;;;7.45;2.00;;;;;;;2.51;100.00;98341.44;4279654;33;20079;-71
2023/01/31 14:24:55;;;;;;;9.98;2.62;;;;;;;2.00;100.00;76711.06;4280359;33;20045;-71
2023/01/31 14:27:36;;;;;;;;;;;;;;;2.75;100.00;98331.06;4282307;33;20037;-70
2023/01/31 14:30:06;;;;;;;5.43;1.90;;;;;;;2.73;100.00;98325.16;4264023;33;19955;-70
2023/01/31 14:32:57;;;;;;;9.27;2.87;;;;;;;2.68;100.00;98327.62;4264217;33;20210;-73
2023/01/31 14:35:29;;;;;;;16.75;3.50;;;;;;;2.66;100.00;98337.66;4264375;33;20071;-71
2023/01/31 14:38:30;;;;;;;6.85;3.08;;;;;;;2.61;100.00;98329.53;4272761;33;20079;-70
2023/01/31 14:41:31;;;;;;;6.28;2.40;;;;;;;2.56;100.00;98324.03;4277451;33;20062;-71
2023/01/31 14:44:21;;;;;;;12.40;2.37;;;;;;;2.73;100.00;98309.19;4279600;33;20160;-70
2023/01/31 14:47:35;;;;;;;10.02;2.67;;;;;;;2.35;100.00;98307.41;4249096;33;20089;-70
2023/01/31 14:50:12;;;;;;;;;;;;;;;2.50;100.00;98321.19;4211398;34;20053;-71
2023/01/31 14:52:45;;;;;;;7.82;2.80;;;;;;;2.58;100.00;98322.78;4226952;33;19937;-69
2023/01/31 14:55:21;;;;;;;11.02;2.33;;;;;;;2.57;100.00;98315.00;4226801;33;20056;-70
2023/01/31 14:57:55;;;;;;;11.45;2.87;;;;;;;2.49;100.00;98293.00;4238359;33;20090;-71
2023/01/31 15:00:21;;;;;;;12.63;2.97;;;;;;;2.51;100.00;98312.19;4240054;33;20095;-72
2023/01/31 15:03:00;;;;;;;13.60;2.87;;;;;;;2.53;100.00;98304.81;4218442;34;20082;-71
2023/01/31 15:05:35;;;;;;;20.02;3.55;;;;;;;2.35;100.00;98302.09;4233103;33;20124;-70
2023/01/31 15:08:25;;;;;;;11.57;3.97;;;;;;;2.54;100.00;98301.13;4240420;33;20461;-70
2023/01/31 15:11:03;;;;;;;9.63;2.80;;;;;;;2.34;100.00;98303.13;4238889;33;20216;-71
2023/01/31 15:13:53;;;;;;;8.68;3.00;;;;;;;2.20;100.00;98289.09;4243664;33;20078;-71
2023/01/31 15:16:33;;;;;;;13.32;3.65;;;;;;;2.10;100.00;98268.31;4251050;33;20074;-72
2023/01/31 15:19:11;;;;;;;9.18;3.05;;;;;;;1.96;100.00;98266.75;4256965;33;20060;-70
2023/01/31 15:21:55;;;;;;;14.73;3.37;;;;;;;2.04;100.00;98311.66;4250966;33;20496;-71
2023/01/31 15:24:39;;;;;;;13.40;3.25;;;;;;;1.85;100.00;98276.22;4237610;33;20068;-71
2023/01/31 15:27:34;;;;;;;14.57;4.15;;;;;;;1.98;100.00;98296.59;4236864;33;20034;-71
2023/01/31 15:30:27;;;;;;;26.40;5.12;;;;;;;2.33;100.00;98309.44;4236273;33;20053;-70
2023/01/31 15:32:56;;;;;;;17.40;4.78;;;;;;;2.21;100.00;98311.16;4221697;34;20043;-71
2023/01/31 15:36:02;;;;;;;13.00;4.90;;;;;;;2.13;100.00;98302.41;4227055;33;20137;-72
2023/01/31 15:38:37;;;;;;;19.70;5.00;;;;;;;1.98;100.00;98307.22;4221588;33;20058;-71
2023/01/31 15:41:35;;;;;;;14.75;4.85;;;;;;;2.14;100.00;98301.41;4223910;33;20534;-70
2023/01/31 15:44:18;;;;;;;17.08;5.95;;;;;;;2.29;100.00;98308.25;4205260;34;20073;-70
2023/01/31 15:46:47;;;;;;;19.20;6.65;;;;;;;2.40;100.00;98310.22;4210191;34;20178;-71
2023/01/31 15:49:43;;;;;;;21.65;4.43;;;;;;;2.59;100.00;98297.84;4194952;34;20076;-71
2023/01/31 15:52:18;;;;;;;25.33;4.78;;;;;;;2.18;100.00;98305.22;4194093;34;20230;-69
2023/01/31 15:54:56;;;;;;;26.37;7.18;;;;;;;2.27;100.00;98312.97;4193092;34;20419;-72
2023/01/31 15:57:28;;;;;;;19.58;6.32;;;;;;;2.40;100.00;98304.91;4183047;34;21025;-71
2023/01/31 15:59:55;;;;;;;19.47;4.80;;;;;;;2.34;100.00;98303.13;4183394;34;20382;-70
2023/01/31 16:02:32;;;;;;;18.52;4.90;;;;;;;2.23;100.00;98256.78;4182109;34;20107;-69